sensor_id;sensor_type;location;lat;lon;timestamp;pressure;altitude;pressure_sealevel;temperature;humidity
31225;BME280;17847;31.524;74.366;2023-03-03T00:02:05;99567.31;;;17.64;64.34
31225;BME280;17847;31.524;74.366;2023-03-03T00:04:54;99569.34;;;17.68;64.54
31225;BME280;17847;31.524;74.366;2023-03-03T00:07:36;99570.66;;;17.59;65.15
31225;BME280;17847;31.524;74.366;2023-03-03T00:10:25;99571.28;;;17.61;65.18
31225;BME280;17847;31.524;74.366;2023-03-03T00:13:21;99582.81;;;17.55;64.99
31225;BME280;17847;31.524;74.366;2023-03-03T00:16:38;99574.38;;;17.51;65.91
31225;BME280;17847;31.524;74.366;2023-03-03T00:19:22;99590.03;;;17.55;65.96
31225;BME280;17847;31.524;74.366;2023-03-03T00:22:23;99585.16;;;17.76;65.32
31225;BME280;17847;31.524;74.366;2023-03-03T00:25:28;99583.84;;;17.85;65.04
31225;BME280;17847;31.524;74.366;2023-03-03T00:28:30;99587.91;;;17.94;66.05
31225;BME280;17847;31.524;74.366;2023-03-03T00:31:33;99590.59;;;17.94;64.81
31225;BME280;17847;31.524;74.366;2023-03-03T00:34:27;99599.84;;;17.99;64.05
31225;BME280;17847;31.524;74.366;2023-03-03T00:40:26;99596.78;;;17.95;64.90
31225;BME280;17847;31.524;74.366;2023-03-03T00:43:23;99599.75;;;17.80;65.09
31225;BME280;17847;31.524;74.366;2023-03-03T00:46:22;99595.03;;;17.82;64.87
31225;BME280;17847;31.524;74.366;2023-03-03T00:48:57;99594.56;;;17.85;64.71
31225;BME280;17847;31.524;74.366;2023-03-03T00:51:54;99593.06;;;17.96;65.62
31225;BME280;17847;31.524;74.366;2023-03-03T00:54:35;99598.44;;;17.96;64.18
31225;BME280;17847;31.524;74.366;2023-03-03T00:57:24;99602.69;;;18.04;63.63
31225;BME280;17847;31.524;74.366;2023-03-03T01:00:09;99602.59;;;17.92;64.32
31225;BME280;17847;31.524;74.366;2023-03-03T01:03:02;99603.25;;;17.87;64.18
31225;BME280;17847;31.524;74.366;2023-03-03T01:05:40;99607.22;;;17.78;65.03
31225;BME280;17847;31.524;74.366;2023-03-03T01:08:38;99612.56;;;17.78;65.00
31225;BME280;17847;31.524;74.366;2023-03-03T01:11:23;99609.44;;;17.81;65.21
31225;BME280;17847;31.524;74.366;2023-03-03T01:14:14;99606.47;;;17.96;66.33
31225;BME280;17847;31.524;74.366;2023-03-03T01:16:50;99615.06;;;18.05;64.06
31225;BME280;17847;31.524;74.366;2023-03-03T01:19:46;99615.06;;;18.05;65.42
31225;BME280;17847;31.524;74.366;2023-03-03T01:22:21;99621.63;;;18.09;64.07
31225;BME280;17847;31.524;74.366;2023-03-03T01:25:17;99615.00;;;18.11;63.73
31225;BME280;17847;31.524;74.366;2023-03-03T01:27:53;99621.25;;;18.05;63.77
31225;BME280;17847;31.524;74.366;2023-03-03T01:30:48;99624.78;;;18.24;64.10
31225;BME280;17847;31.524;74.366;2023-03-03T01:33:31;99627.09;;;17.95;64.18
31225;BME280;17847;31.524;74.366;2023-03-03T01:36:24;99625.47;;;17.88;64.51
31225;BME280;17847;31.524;74.366;2023-03-03T01:39:00;99632.06;;;17.92;64.81
31225;BME280;17847;31.524;74.366;2023-03-03T01:41:56;99631.00;;;17.93;64.65
31225;BME280;17847;31.524;74.366;2023-03-03T01:44:32;99637.44;;;17.92;65.09
31225;BME280;17847;31.524;74.366;2023-03-03T01:47:28;99651.03;;;17.90;64.44
31225;BME280;17847;31.524;74.366;2023-03-03T01:50:25;99653.34;;;17.80;65.28
31225;BME280;17847;31.524;74.366;2023-03-03T01:53:29;99659.91;;;18.16;63.91
31225;BME280;17847;31.524;74.366;2023-03-03T01:56:30;99659.91;;;18.16;63.34
31225;BME280;17847;31.524;74.366;2023-03-03T01:59:30;99660.53;;;18.42;63.07
31225;BME280;17847;31.524;74.366;2023-03-03T02:02:14;99660.09;;;18.21;62.66
31225;BME280;17847;31.524;74.366;2023-03-03T02:05:04;99669.22;;;18.38;64.39
31225;BME280;17847;31.524;74.366;2023-03-03T02:07:47;99669.94;;;18.52;62.10
31225;BME280;17847;31.524;74.366;2023-03-03T02:10:36;99677.16;;;18.51;63.52
31225;BME280;17847;31.524;74.366;2023-03-03T02:13:18;99680.50;;;18.53;61.37
31225;BME280;17847;31.524;74.366;2023-03-03T02:16:07;99685.88;;;18.47;61.37
31225;BME280;17847;31.524;74.366;2023-03-03T02:18:49;99686.09;;;18.45;62.04
31225;BME280;17847;31.524;74.366;2023-03-03T02:21:45;99686.53;;;18.42;62.02
31225;BME280;17847;31.524;74.366;2023-03-03T02:24:37;99696.19;;;18.74;nan
31225;BME280;17847;31.524;74.366;2023-03-03T02:27:36;99695.41;;;18.92;61.47
31225;BME280;17847;31.524;74.366;2023-03-03T02:30:21;99695.09;;;19.00;62.47
31225;BME280;17847;31.524;74.366;2023-03-03T02:33:10;99706.53;;;19.32;61.55
31225;BME280;17847;31.524;74.366;2023-03-03T02:35:53;99708.34;;;19.38;59.49
31225;BME280;17847;31.524;74.366;2023-03-03T02:41:56;99717.63;;;19.17;60.10
31225;BME280;17847;31.524;74.366;2023-03-03T02:44:52;99719.94;;;18.96;60.53
31225;BME280;17847;31.524;74.366;2023-03-03T02:47:34;99723.09;;;19.11;60.51
31225;BME280;17847;31.524;74.366;2023-03-03T02:50:24;99730.09;;;19.12;59.40
31225;BME280;17847;31.524;74.366;2023-03-03T02:53:06;99738.00;;;19.07;60.43
31225;BME280;17847;31.524;74.366;2023-03-03T02:56:02;99748.81;;;19.18;60.50
31225;BME280;17847;31.524;74.366;2023-03-03T02:58:44;99744.44;;;19.24;59.54
31225;BME280;17847;31.524;74.366;2023-03-03T03:01:36;99753.38;;;19.36;60.19
31225;BME280;17847;31.524;74.366;2023-03-03T03:04:22;99758.41;;;19.33;59.81
31225;BME280;17847;31.524;74.366;2023-03-03T03:07:11;99764.28;;;19.23;60.30
31225;BME280;17847;31.524;74.366;2023-03-03T03:09:54;99764.50;;;19.40;59.79
31225;BME280;17847;31.524;74.366;2023-03-03T03:12:49;99763.53;;;19.34;60.47
31225;BME280;17847;31.524;74.366;2023-03-03T03:15:31;99766.41;;;19.57;59.06
31225;BME280;17847;31.524;74.366;2023-03-03T03:18:20;99775.28;;;19.58;58.96
31225;BME280;17847;31.524;74.366;2023-03-03T03:21:06;99772.13;;;19.43;59.12
31225;BME280;17847;31.524;74.366;2023-03-03T03:23:56;99769.97;;;19.69;58.95
31225;BME280;17847;31.524;74.366;2023-03-03T03:26:43;99777.59;;;19.91;57.53
31225;BME280;17847;31.524;74.366;2023-03-03T03:29:32;99778.00;;;20.06;57.69
31225;BME280;17847;31.524;74.366;2023-03-03T03:32:16;99777.13;;;20.53;56.75
31225;BME280;17847;31.524;74.366;2023-03-03T03:35:06;99781.72;;;20.65;55.67
31225;BME280;17847;31.524;74.366;2023-03-03T03:37:49;99781.09;;;21.16;55.99
31225;BME280;17847;31.524;74.366;2023-03-03T03:40:37;99781.31;;;22.29;51.68
31225;BME280;17847;31.524;74.366;2023-03-03T03:43:20;99774.34;;;23.11;49.03
31225;BME280;17847;31.524;74.366;2023-03-03T03:46:15;99787.50;;;23.24;49.30
31225;BME280;17847;31.524;74.366;2023-03-03T03:48:58;99792.53;;;23.16;49.21
31225;BME280;17847;31.524;74.366;2023-03-03T03:51:47;99794.50;;;23.04;48.79
31225;BME280;17847;31.524;74.366;2023-03-03T03:54:32;99796.78;;;23.67;49.02
31225;BME280;17847;31.524;74.366;2023-03-03T03:57:21;99791.00;;;24.82;46.32
31225;BME280;17847;31.524;74.366;2023-03-03T04:00:04;99787.84;;;25.32;43.72
31225;BME280;17847;31.524;74.366;2023-03-03T04:03:00;99784.66;;;25.92;41.91
31225;BME280;17847;31.524;74.366;2023-03-03T04:05:44;99785.94;;;26.72;41.13
31225;BME280;17847;31.524;74.366;2023-03-03T04:08:34;99787.53;;;26.83;40.88
31225;BME280;17847;31.524;74.366;2023-03-03T04:11:19;99786.22;;;27.06;40.39
31225;BME280;17847;31.524;74.366;2023-03-03T04:14:10;99787.03;;;27.12;39.64
31225;BME280;17847;31.524;74.366;2023-03-03T04:16:54;99792.41;;;27.52;40.28
31225;BME280;17847;31.524;74.366;2023-03-03T04:19:42;99790.19;;;27.64;39.11
31225;BME280;17847;31.524;74.366;2023-03-03T04:22:25;99789.94;;;27.41;39.08
31225;BME280;17847;31.524;74.366;2023-03-03T04:25:15;99796.44;;;27.70;36.73
31225;BME280;17847;31.524;74.366;2023-03-03T04:27:58;99794.50;;;28.35;36.81
31225;BME280;17847;31.524;74.366;2023-03-03T04:30:56;99796.59;;;28.48;37.60
31225;BME280;17847;31.524;74.366;2023-03-03T04:33:39;99789.91;;;28.30;35.37
31225;BME280;17847;31.524;74.366;2023-03-03T04:36:29;99796.28;;;28.05;35.56
31225;BME280;17847;31.524;74.366;2023-03-03T04:39:12;99804.78;;;28.48;36.51
31225;BME280;17847;31.524;74.366;2023-03-03T04:42:03;99799.00;;;28.54;37.16
31225;BME280;17847;31.524;74.366;2023-03-03T04:44:47;99798.25;;;28.44;37.44
31225;BME280;17847;31.524;74.366;2023-03-03T04:47:36;99795.34;;;28.30;36.31
31225;BME280;17847;31.524;74.366;2023-03-03T04:50:12;99790.88;;;28.49;37.70
31225;BME280;17847;31.524;74.366;2023-03-03T04:53:09;99795.91;;;28.71;37.31
31225;BME280;17847;31.524;74.366;2023-03-03T04:55:45;99795.13;;;28.99;36.71
31225;BME280;17847;31.524;74.366;2023-03-03T04:58:42;99792.56;;;29.08;36.90
31225;BME280;17847;31.524;74.366;2023-03-03T05:01:24;99787.31;;;28.88;36.25
31225;BME280;17847;31.524;74.366;2023-03-03T05:04:14;99791.75;;;28.79;36.72
31225;BME280;17847;31.524;74.366;2023-03-03T05:06:57;99792.72;;;28.93;34.61
31225;BME280;17847;31.524;74.366;2023-03-03T05:09:45;99791.63;;;29.23;35.00
31225;BME280;17847;31.524;74.366;2023-03-03T05:12:28;99793.25;;;28.95;36.33
31225;BME280;17847;31.524;74.366;2023-03-03T05:15:16;99796.03;;;28.51;37.32
31225;BME280;17847;31.524;74.366;2023-03-03T05:17:58;99782.91;;;28.58;37.38
31225;BME280;17847;31.524;74.366;2023-03-03T05:20:48;99788.59;;;28.62;36.28
31225;BME280;17847;31.524;74.366;2023-03-03T05:23:31;99782.78;;;28.73;36.85
31225;BME280;17847;31.524;74.366;2023-03-03T05:26:19;99777.75;;;28.51;35.92
31225;BME280;17847;31.524;74.366;2023-03-03T05:29:02;99784.38;;;28.40;37.38
31225;BME280;17847;31.524;74.366;2023-03-03T05:31:51;99776.47;;;28.78;36.98
31225;BME280;17847;31.524;74.366;2023-03-03T05:34:33;99780.41;;;28.23;36.08
31225;BME280;17847;31.524;74.366;2023-03-03T05:37:29;99780.25;;;28.48;35.76
31225;BME280;17847;31.524;74.366;2023-03-03T05:40:05;99777.66;;;28.67;37.27
31225;BME280;17847;31.524;74.366;2023-03-03T05:43:01;99779.59;;;28.61;36.83
31225;BME280;17847;31.524;74.366;2023-03-03T05:45:43;99776.28;;;28.64;37.58
31225;BME280;17847;31.524;74.366;2023-03-03T05:48:32;99782.19;;;28.81;35.28
31225;BME280;17847;31.524;74.366;2023-03-03T05:51:14;99778.69;;;29.05;36.24
31225;BME280;17847;31.524;74.366;2023-03-03T05:54:03;99786.97;;;28.94;34.77
31225;BME280;17847;31.524;74.366;2023-03-03T05:56:52;99788.56;;;28.67;35.51
31225;BME280;17847;31.524;74.366;2023-03-03T05:59:47;99789.88;;;28.69;35.41
31225;BME280;17847;31.524;74.366;2023-03-03T06:02:38;99794.91;;;28.57;36.13
31225;BME280;17847;31.524;74.366;2023-03-03T06:05:27;99793.88;;;28.48;37.69
31225;BME280;17847;31.524;74.366;2023-03-03T06:08:09;99788.84;;;28.26;35.64
31225;BME280;17847;31.524;74.366;2023-03-03T06:10:58;99787.88;;;28.46;37.41
31225;BME280;17847;31.524;74.366;2023-03-03T06:13:40;99790.69;;;28.75;37.48
31225;BME280;17847;31.524;74.366;2023-03-03T06:16:29;99789.28;;;28.38;36.57
31225;BME280;17847;31.524;74.366;2023-03-03T06:19:11;99788.84;;;28.21;36.87
31225;BME280;17847;31.524;74.366;2023-03-03T06:22:00;99774.97;;;28.23;37.80
31225;BME280;17847;31.524;74.366;2023-03-03T06:24:42;99769.69;;;28.36;38.19
31225;BME280;17847;31.524;74.366;2023-03-03T06:27:33;99768.13;;;28.25;37.72
31225;BME280;17847;31.524;74.366;2023-03-03T06:30:15;99759.25;;;28.48;35.92
31225;BME280;17847;31.524;74.366;2023-03-03T06:33:05;99760.56;;;28.07;37.63
31225;BME280;17847;31.524;74.366;2023-03-03T06:35:53;99749.59;;;28.27;37.37
31225;BME280;17847;31.524;74.366;2023-03-03T06:38:45;99757.16;;;28.35;36.60
31225;BME280;17847;31.524;74.366;2023-03-03T06:41:27;99758.84;;;28.26;35.95
31225;BME280;17847;31.524;74.366;2023-03-03T06:44:16;99744.31;;;28.41;35.09
31225;BME280;17847;31.524;74.366;2023-03-03T06:47:02;99746.31;;;28.25;36.82
31225;BME280;17847;31.524;74.366;2023-03-03T06:49:50;99738.06;;;28.40;35.86
31225;BME280;17847;31.524;74.366;2023-03-03T06:52:33;99724.41;;;28.45;36.86
31225;BME280;17847;31.524;74.366;2023-03-03T06:55:22;99720.25;;;28.09;34.61
31225;BME280;17847;31.524;74.366;2023-03-03T06:58:11;99719.09;;;28.20;37.66
31225;BME280;17847;31.524;74.366;2023-03-03T07:01:00;99715.63;;;28.15;34.43
31225;BME280;17847;31.524;74.366;2023-03-03T07:03:42;99707.03;;;27.87;32.61
31225;BME280;17847;31.524;74.366;2023-03-03T07:06:31;99707.19;;;28.11;34.16
31225;BME280;17847;31.524;74.366;2023-03-03T07:09:25;99705.56;;;28.05;35.61
31225;BME280;17847;31.524;74.366;2023-03-03T07:12:31;99698.56;;;27.94;36.12
31225;BME280;17847;31.524;74.366;2023-03-03T07:18:22;99683.66;;;27.81;37.78
31225;BME280;17847;31.524;74.366;2023-03-03T07:27:23;99682.44;;;28.02;38.35
31225;BME280;17847;31.524;74.366;2023-03-03T07:30:27;99678.94;;;27.97;34.80
31225;BME280;17847;31.524;74.366;2023-03-03T07:33:07;99675.41;;;27.96;38.56
31225;BME280;17847;31.524;74.366;2023-03-03T07:36:34;99672.06;;;28.04;35.41
31225;BME280;17847;31.524;74.366;2023-03-03T07:45:26;99650.75;;;27.78;35.95
31225;BME280;17847;31.524;74.366;2023-03-03T07:48:35;99642.88;;;27.71;35.16
31225;BME280;17847;31.524;74.366;2023-03-03T07:51:25;99643.13;;;27.75;37.09
31225;BME280;17847;31.524;74.366;2023-03-03T07:57:01;99639.00;;;27.82;37.46
31225;BME280;17847;31.524;74.366;2023-03-03T08:03:00;99625.84;;;27.50;38.89
31225;BME280;17847;31.524;74.366;2023-03-03T08:05:51;99626.94;;;27.49;40.87
31225;BME280;17847;31.524;74.366;2023-03-03T08:08:34;99632.09;;;27.56;38.32
31225;BME280;17847;31.524;74.366;2023-03-03T08:11:24;99626.34;;;27.57;37.08
31225;BME280;17847;31.524;74.366;2023-03-03T08:14:12;99620.66;;;27.54;37.39
31225;BME280;17847;31.524;74.366;2023-03-03T08:17:23;99620.38;;;27.55;39.39
31225;BME280;17847;31.524;74.366;2023-03-03T08:20:00;99611.75;;;27.38;36.82
31225;BME280;17847;31.524;74.366;2023-03-03T08:22:56;99609.00;;;27.43;35.15
31225;BME280;17847;31.524;74.366;2023-03-03T08:25:38;99598.41;;;27.37;37.31
31225;BME280;17847;31.524;74.366;2023-03-03T08:28:28;99591.91;;;27.33;37.21
31225;BME280;17847;31.524;74.366;2023-03-03T08:31:10;99582.69;;;27.29;39.14
31225;BME280;17847;31.524;74.366;2023-03-03T08:34:18;99587.78;;;27.40;37.69
31225;BME280;17847;31.524;74.366;2023-03-03T08:37:00;99579.09;;;27.38;36.86
31225;BME280;17847;31.524;74.366;2023-03-03T08:39:49;99571.97;;;27.47;36.85
31225;BME280;17847;31.524;74.366;2023-03-03T08:42:31;99566.78;;;27.51;37.63
31225;BME280;17847;31.524;74.366;2023-03-03T08:45:20;99567.44;;;27.27;36.49
31225;BME280;17847;31.524;74.366;2023-03-03T08:48:02;99562.31;;;27.26;35.32
31225;BME280;17847;31.524;74.366;2023-03-03T08:50:51;99564.44;;;27.29;35.12
31225;BME280;17847;31.524;74.366;2023-03-03T08:53:33;99559.06;;;27.14;35.33
31225;BME280;17847;31.524;74.366;2023-03-03T08:56:29;99561.28;;;27.12;37.61
31225;BME280;17847;31.524;74.366;2023-03-03T08:59:04;99548.53;;;27.02;37.93
31225;BME280;17847;31.524;74.366;2023-03-03T09:02:01;99542.88;;;26.89;39.41
31225;BME280;17847;31.524;74.366;2023-03-03T09:04:37;99540.97;;;26.89;39.03
31225;BME280;17847;31.524;74.366;2023-03-03T09:07:32;99532.84;;;26.89;39.30
31225;BME280;17847;31.524;74.366;2023-03-03T09:10:09;99531.50;;;26.71;39.65
31225;BME280;17847;31.524;74.366;2023-03-03T09:13:14;99522.53;;;26.76;38.78
31225;BME280;17847;31.524;74.366;2023-03-03T09:15:51;99519.31;;;26.64;39.85
31225;BME280;17847;31.524;74.366;2023-03-03T09:18:46;99510.13;;;26.55;37.96
31225;BME280;17847;31.524;74.366;2023-03-03T09:21:30;99513.09;;;26.53;39.74
31225;BME280;17847;31.524;74.366;2023-03-03T09:24:27;99517.97;;;26.56;38.98
31225;BME280;17847;31.524;74.366;2023-03-03T09:30:29;99508.94;;;26.76;37.46
31225;BME280;17847;31.524;74.366;2023-03-03T09:36:36;99498.94;;;26.56;40.10
31225;BME280;17847;31.524;74.366;2023-03-03T09:39:25;99493.53;;;26.51;39.06
31225;BME280;17847;31.524;74.366;2023-03-03T09:52:31;99483.75;;;26.55;37.13
31225;BME280;17847;31.524;74.366;2023-03-03T09:58:43;99471.06;;;26.30;38.61
31225;BME280;17847;31.524;74.366;2023-03-03T10:02:06;99469.41;;;26.29;37.36
31225;BME280;17847;31.524;74.366;2023-03-03T10:07:58;99460.97;;;26.41;40.18
31225;BME280;17847;31.524;74.366;2023-03-03T10:11:00;99454.94;;;26.54;39.00
31225;BME280;17847;31.524;74.366;2023-03-03T10:23:40;99448.28;;;26.80;37.13
31225;BME280;17847;31.524;74.366;2023-03-03T10:33:00;99446.53;;;26.51;37.08
31225;BME280;17847;31.524;74.366;2023-03-03T10:36:10;99444.38;;;26.48;38.02
31225;BME280;17847;31.524;74.366;2023-03-03T10:39:20;99431.34;;;26.50;39.00
31225;BME280;17847;31.524;74.366;2023-03-03T10:45:12;99427.78;;;26.54;39.02
31225;BME280;17847;31.524;74.366;2023-03-03T11:00:29;99435.16;;;26.38;37.39
31225;BME280;17847;31.524;74.366;2023-03-03T11:10:29;99430.59;;;26.19;40.08
31225;BME280;17847;31.524;74.366;2023-03-03T11:13:42;99425.75;;;26.06;39.45
31225;BME280;17847;31.524;74.366;2023-03-03T11:22:27;99414.94;;;25.80;41.67
31225;BME280;17847;31.524;74.366;2023-03-03T11:25:34;99416.88;;;25.70;41.98
31225;BME280;17847;31.524;74.366;2023-03-03T11:31:20;99418.22;;;25.47;42.72
31225;BME280;17847;31.524;74.366;2023-03-03T11:34:22;99409.25;;;25.36;42.90
31225;BME280;17847;31.524;74.366;2023-03-03T11:40:08;99402.19;;;25.15;41.76
31225;BME280;17847;31.524;74.366;2023-03-03T11:43:21;99399.75;;;25.19;42.38
31225;BME280;17847;31.524;74.366;2023-03-03T11:46:40;99394.88;;;25.16;43.96
31225;BME280;17847;31.524;74.366;2023-03-03T11:53:53;99403.00;;;25.11;43.60
31225;BME280;17847;31.524;74.366;2023-03-03T11:56:45;99399.47;;;25.05;43.19
31225;BME280;17847;31.524;74.366;2023-03-03T12:03:20;99405.41;;;24.92;41.82
31225;BME280;17847;31.524;74.366;2023-03-03T12:06:46;99415.94;;;24.83;42.42
31225;BME280;17847;31.524;74.366;2023-03-03T12:10:06;99415.94;;;24.83;43.53
31225;BME280;17847;31.524;74.366;2023-03-03T12:25:56;99420.47;;;24.52;45.31
31225;BME280;17847;31.524;74.366;2023-03-03T12:36:12;99427.94;;;24.30;45.39
31225;BME280;17847;31.524;74.366;2023-03-03T12:38:46;99428.75;;;24.26;45.58
31225;BME280;17847;31.524;74.366;2023-03-03T12:41:44;99437.06;;;24.14;46.13
31225;BME280;17847;31.524;74.366;2023-03-03T12:51:30;99446.34;;;23.86;47.56
31225;BME280;17847;31.524;74.366;2023-03-03T12:57:39;99448.19;;;23.76;48.72
31225;BME280;17847;31.524;74.366;2023-03-03T13:10:07;99452.66;;;23.33;49.87
31225;BME280;17847;31.524;74.366;2023-03-03T13:16:44;99451.50;;;23.24;51.28
31225;BME280;17847;31.524;74.366;2023-03-03T13:19:57;99456.00;;;23.13;51.12
31225;BME280;17847;31.524;74.366;2023-03-03T13:26:10;99464.78;;;22.99;52.74
31225;BME280;17847;31.524;74.366;2023-03-03T13:32:04;99464.16;;;22.92;52.78
31225;BME280;17847;31.524;74.366;2023-03-03T13:35:17;99466.00;;;22.86;53.05
31225;BME280;17847;31.524;74.366;2023-03-03T13:38:49;99460.28;;;22.82;54.34
31225;BME280;17847;31.524;74.366;2023-03-03T13:41:42;99462.34;;;22.75;54.12
31225;BME280;17847;31.524;74.366;2023-03-03T13:44:40;99468.94;;;22.63;53.17
31225;BME280;17847;31.524;74.366;2023-03-03T13:47:49;99460.59;;;22.64;54.14
31225;BME280;17847;31.524;74.366;2023-03-03T13:53:38;99467.50;;;22.55;54.06
31225;BME280;17847;31.524;74.366;2023-03-03T14:03:33;99467.19;;;22.52;54.57
31225;BME280;17847;31.524;74.366;2023-03-03T14:06:26;99462.53;;;22.47;55.11
31225;BME280;17847;31.524;74.366;2023-03-03T14:12:46;99468.78;;;22.53;54.58
31225;BME280;17847;31.524;74.366;2023-03-03T14:16:00;99477.84;;;22.42;55.98
31225;BME280;17847;31.524;74.366;2023-03-03T14:21:55;99489.66;;;22.57;55.70
31225;BME280;17847;31.524;74.366;2023-03-03T14:24:58;99491.94;;;22.44;55.33
31225;BME280;17847;31.524;74.366;2023-03-03T14:28:02;99480.91;;;22.28;55.73
31225;BME280;17847;31.524;74.366;2023-03-03T14:30:48;99489.50;;;22.25;57.42
31225;BME280;17847;31.524;74.366;2023-03-03T14:33:55;99473.72;;;22.34;56.82
31225;BME280;17847;31.524;74.366;2023-03-03T14:36:39;99489.75;;;22.24;57.03
31225;BME280;17847;31.524;74.366;2023-03-03T14:39:35;99489.75;;;22.24;58.06
31225;BME280;17847;31.524;74.366;2023-03-03T14:45:41;99493.94;;;22.15;57.54
31225;BME280;17847;31.524;74.366;2023-03-03T14:48:25;99497.69;;;22.14;57.56
31225;BME280;17847;31.524;74.366;2023-03-03T14:51:24;99496.81;;;22.08;57.95
31225;BME280;17847;31.524;74.366;2023-03-03T14:54:27;99506.38;;;22.16;59.09
31225;BME280;17847;31.524;74.366;2023-03-03T14:57:41;99508.69;;;22.07;58.16
31225;BME280;17847;31.524;74.366;2023-03-03T15:00:36;99509.59;;;22.13;59.28
31225;BME280;17847;31.524;74.366;2023-03-03T15:03:34;99512.50;;;22.11;58.55
31225;BME280;17847;31.524;74.366;2023-03-03T15:06:48;99511.84;;;22.04;58.44
31225;BME280;17847;31.524;74.366;2023-03-03T15:09:48;99507.66;;;22.13;58.84
31225;BME280;17847;31.524;74.366;2023-03-03T15:12:35;99513.25;;;22.07;58.49
31225;BME280;17847;31.524;74.366;2023-03-03T15:15:26;99531.16;;;21.96;58.21
31225;BME280;17847;31.524;74.366;2023-03-03T15:18:09;99532.47;;;21.93;58.58
31225;BME280;17847;31.524;74.366;2023-03-03T15:21:14;99536.94;;;21.88;59.31
31225;BME280;17847;31.524;74.366;2023-03-03T15:27:31;99547.00;;;21.76;59.70
31225;BME280;17847;31.524;74.366;2023-03-03T15:30:27;99546.25;;;21.64;59.55
31225;BME280;17847;31.524;74.366;2023-03-03T15:33:24;99547.72;;;21.55;59.45
31225;BME280;17847;31.524;74.366;2023-03-03T15:39:36;99564.75;;;21.43;59.82
31225;BME280;17847;31.524;74.366;2023-03-03T15:42:23;99557.06;;;21.35;60.15
31225;BME280;17847;31.524;74.366;2023-03-03T15:55:19;99568.94;;;21.11;61.71
31225;BME280;17847;31.524;74.366;2023-03-03T16:01:03;99577.16;;;21.04;63.03
31225;BME280;17847;31.524;74.366;2023-03-03T16:04:03;99577.06;;;20.99;62.08
31225;BME280;17847;31.524;74.366;2023-03-03T16:07:13;99587.38;;;20.91;62.86
31225;BME280;17847;31.524;74.366;2023-03-03T16:26:07;99591.28;;;20.72;62.29
31225;BME280;17847;31.524;74.366;2023-03-03T16:29:15;99595.84;;;20.59;62.91
31225;BME280;17847;31.524;74.366;2023-03-03T16:35:34;99598.06;;;20.62;62.98
31225;BME280;17847;31.524;74.366;2023-03-03T16:38:37;99588.72;;;20.53;62.98
31225;BME280;17847;31.524;74.366;2023-03-03T16:44:57;99588.59;;;20.72;62.95
31225;BME280;17847;31.524;74.366;2023-03-03T16:54:02;99590.13;;;20.56;62.89
31225;BME280;17847;31.524;74.366;2023-03-03T17:00:22;99584.84;;;20.49;63.44
31225;BME280;17847;31.524;74.366;2023-03-03T17:03:57;99590.25;;;20.49;64.21
31225;BME280;17847;31.524;74.366;2023-03-03T17:06:54;99588.50;;;20.32;63.71
31225;BME280;17847;31.524;74.366;2023-03-03T17:13:08;99590.13;;;20.33;64.04
31225;BME280;17847;31.524;74.366;2023-03-03T17:19:48;99594.31;;;20.29;65.53
31225;BME280;17847;31.524;74.366;2023-03-03T17:23:07;99595.06;;;20.47;64.62
31225;BME280;17847;31.524;74.366;2023-03-03T17:29:30;99597.16;;;20.45;63.78
31225;BME280;17847;31.524;74.366;2023-03-03T17:32:33;99601.97;;;20.43;64.11
31225;BME280;17847;31.524;74.366;2023-03-03T17:35:35;99610.47;;;20.63;65.49
31225;BME280;17847;31.524;74.366;2023-03-03T17:41:20;99612.00;;;20.59;62.52
31225;BME280;17847;31.524;74.366;2023-03-03T17:44:58;99620.31;;;20.70;64.20
31225;BME280;17847;31.524;74.366;2023-03-03T17:54:40;99624.41;;;20.72;63.02
31225;BME280;17847;31.524;74.366;2023-03-03T17:57:52;99634.25;;;20.78;63.85
31225;BME280;17847;31.524;74.366;2023-03-03T18:04:19;99619.16;;;20.66;62.41
31225;BME280;17847;31.524;74.366;2023-03-03T18:07:16;99600.44;;;20.71;63.04
31225;BME280;17847;31.524;74.366;2023-03-03T18:20:00;99604.13;;;20.23;64.67
31225;BME280;17847;31.524;74.366;2023-03-03T18:22:51;99594.44;;;20.22;64.18
31225;BME280;17847;31.524;74.366;2023-03-03T18:32:20;99613.88;;;20.36;63.97
31225;BME280;17847;31.524;74.366;2023-03-03T18:35:38;99605.44;;;20.32;63.75
31225;BME280;17847;31.524;74.366;2023-03-03T18:38:35;99597.03;;;20.40;63.92
31225;BME280;17847;31.524;74.366;2023-03-03T18:41:26;99600.06;;;20.32;63.24
31225;BME280;17847;31.524;74.366;2023-03-03T18:44:26;99601.72;;;20.33;62.97
31225;BME280;17847;31.524;74.366;2023-03-03T18:47:12;99595.41;;;20.39;64.13
31225;BME280;17847;31.524;74.366;2023-03-03T18:50:14;99599.47;;;20.53;63.54
31225;BME280;17847;31.524;74.366;2023-03-03T18:53:26;99610.25;;;20.53;62.36
31225;BME280;17847;31.524;74.366;2023-03-03T19:02:32;99587.44;;;20.33;62.84
31225;BME280;17847;31.524;74.366;2023-03-03T19:06:05;99578.66;;;20.37;64.16
31225;BME280;17847;31.524;74.366;2023-03-03T19:11:53;99573.00;;;20.27;63.16
31225;BME280;17847;31.524;74.366;2023-03-03T19:14:39;99565.09;;;20.32;63.65
31225;BME280;17847;31.524;74.366;2023-03-03T19:20:22;99556.31;;;20.13;63.91
31225;BME280;17847;31.524;74.366;2023-03-03T19:23:17;99545.31;;;20.15;63.55
31225;BME280;17847;31.524;74.366;2023-03-03T19:32:26;99536.78;;;19.95;64.80
31225;BME280;17847;31.524;74.366;2023-03-03T19:35:22;99528.78;;;19.88;63.88
31225;BME280;17847;31.524;74.366;2023-03-03T19:47:32;99534.94;;;19.65;62.17
31225;BME280;17847;31.524;74.366;2023-03-03T19:53:34;99532.41;;;19.70;62.52
31225;BME280;17847;31.524;74.366;2023-03-03T19:56:41;99536.50;;;19.73;62.94
31225;BME280;17847;31.524;74.366;2023-03-03T19:59:47;99526.31;;;19.63;62.09
31225;BME280;17847;31.524;74.366;2023-03-03T20:03:14;99519.78;;;19.59;61.59
31225;BME280;17847;31.524;74.366;2023-03-03T20:15:24;99500.72;;;19.61;61.22